createdAt,value
2019-04-27T00:00:28.510Z,11.47
2019-04-27T00:01:27.543Z,11.57
2019-04-27T00:02:27.561Z,11.51
2019-04-27T00:03:27.537Z,11.49
2019-04-27T00:04:27.505Z,11.51
2019-04-27T00:05:32.297Z,11.58
2019-04-27T00:06:28.486Z,11.51
2019-04-27T00:07:27.489Z,11.51
2019-04-27T00:08:28.474Z,11.52
2019-04-27T00:09:28.465Z,11.57
2019-04-27T00:10:28.677Z,11.52
2019-04-27T00:11:27.431Z,11.39
2019-04-27T00:12:27.440Z,11.44
2019-04-27T00:13:27.451Z,11.46
2019-04-27T00:14:27.395Z,11.42
2019-04-27T00:15:31.341Z,11.51
2019-04-27T00:16:28.372Z,11.46
2019-04-27T00:17:45.053Z,11.52
2019-04-27T00:18:28.351Z,11.52
2019-04-27T00:19:31.438Z,11.57
2019-04-27T00:20:27.326Z,11.46
2019-04-27T00:21:27.315Z,11.51
2019-04-27T00:22:27.336Z,11.46
2019-04-27T00:23:27.898Z,11.49
2019-04-27T00:24:27.287Z,11.47
2019-04-27T00:25:27.268Z,11.44
2019-04-27T00:26:27.260Z,11.52
2019-04-27T00:27:27.247Z,11.46
2019-04-27T00:28:27.262Z,11.55
2019-04-27T00:29:27.224Z,11.36
2019-04-27T00:30:27.219Z,11.35
2019-04-27T00:31:27.207Z,11.42
2019-04-27T00:32:27.200Z,11.42
2019-04-27T00:33:27.485Z,11.47
2019-04-27T00:34:27.178Z,11.47
2019-04-27T00:35:27.159Z,11.47
2019-04-27T00:36:27.148Z,11.44
2019-04-27T00:37:27.142Z,11.55
2019-04-27T00:38:27.143Z,11.52
2019-04-27T00:39:27.120Z,11.47
2019-04-27T00:40:27.109Z,11.49
2019-04-27T00:41:27.085Z,11.52
2019-04-27T00:42:27.079Z,11.51
2019-04-27T00:43:27.139Z,11.54
2019-04-27T00:44:27.056Z,11.46
2019-04-27T00:45:27.050Z,11.52
2019-04-27T00:46:27.043Z,11.52
2019-04-27T00:47:27.020Z,11.54
2019-04-27T00:48:27.030Z,11.57
2019-04-27T00:49:27.005Z,11.52
2019-04-27T00:50:26.992Z,11.52
2019-04-27T00:51:26.997Z,11.57
2019-04-27T00:52:26.965Z,11.52
2019-04-27T00:53:27.033Z,11.52
2019-04-27T00:54:26.946Z,11.55
2019-04-27T07:55:34.947Z,14.25
2019-04-27T07:56:34.911Z,14.21
2019-04-27T07:57:34.907Z,14.21
2019-04-27T07:58:34.912Z,14.22
2019-04-27T07:59:34.883Z,14.27
2019-04-27T08:00:34.877Z,14.29
2019-04-27T08:01:34.913Z,14.20
2019-04-27T08:02:34.844Z,14.25
2019-04-27T08:03:34.847Z,14.22
2019-04-27T08:04:34.826Z,14.22
2019-04-27T08:05:34.843Z,14.17
2019-04-27T08:06:34.826Z,14.20
2019-04-27T08:07:34.816Z,14.12
2019-04-27T08:08:34.772Z,14.04
2019-04-27T08:09:34.787Z,14.12
2019-04-27T08:10:34.788Z,14.15
2019-04-27T08:11:34.757Z,14.27
2019-04-27T08:12:34.730Z,14.22
2019-04-27T08:13:34.717Z,14.24
2019-04-27T08:14:34.705Z,14.33
2019-04-27T08:15:34.711Z,14.35
2019-04-27T08:16:34.685Z,14.39
2019-04-27T08:17:34.683Z,14.45
2019-04-27T08:18:34.660Z,14.50
2019-04-27T08:19:34.657Z,14.61
2019-04-27T08:20:34.654Z,14.62
2019-04-27T08:21:43.553Z,14.52
2019-04-27T08:22:35.614Z,14.65
2019-04-27T08:23:34.603Z,14.81
2019-04-27T08:24:34.604Z,14.65
2019-04-27T08:25:34.600Z,14.61
2019-04-27T08:26:34.595Z,14.62
2019-04-27T08:27:34.581Z,14.62
2019-04-27T08:28:34.549Z,14.57
2019-04-27T08:29:34.537Z,14.69
2019-04-27T08:30:34.543Z,14.69
2019-04-27T08:31:34.534Z,14.73
2019-04-27T08:32:34.508Z,14.58
2019-04-27T08:33:34.497Z,14.64
2019-04-27T08:34:34.490Z,14.78
2019-04-27T08:35:34.523Z,14.80
2019-04-27T08:36:34.482Z,14.84
2019-04-27T08:37:34.446Z,14.86
2019-04-27T08:38:34.451Z,14.98
2019-04-27T08:39:34.430Z,15.17
2019-04-27T08:40:34.413Z,15.23
2019-04-27T08:41:34.431Z,15.20
2019-04-27T08:42:34.395Z,15.25
2019-04-27T08:43:34.383Z,15.23
2019-04-27T08:44:34.361Z,15.27
2019-04-27T08:45:34.371Z,15.31
2019-04-27T08:46:34.382Z,15.39
2019-04-27T08:47:34.352Z,15.36
2019-04-27T08:48:36.921Z,15.29
2019-04-27T08:49:34.311Z,15.19
2019-04-27T08:50:34.299Z,15.17
2019-04-27T08:51:34.301Z,15.28
2019-04-27T08:52:34.273Z,15.29
2019-04-27T08:53:34.265Z,15.44
2019-04-27T08:54:34.252Z,15.50
2019-04-27T08:55:34.245Z,15.51
2019-04-27T08:56:34.255Z,15.50
2019-04-27T08:57:34.214Z,15.64
2019-04-27T08:58:34.209Z,15.59
2019-04-27T08:59:34.198Z,15.65
2019-04-27T09:00:34.185Z,15.68
2019-04-27T09:01:34.203Z,15.83
2019-04-27T09:02:44.153Z,16.08
2019-04-27T09:03:35.144Z,16.27
2019-04-27T09:04:34.137Z,16.38
2019-04-27T09:05:34.121Z,16.46
2019-04-27T09:06:34.138Z,16.60
2019-04-27T09:07:34.111Z,16.83
2019-04-27T09:08:34.112Z,16.98
2019-04-27T09:09:34.084Z,16.98
2019-04-27T09:10:34.066Z,16.94
2019-04-27T09:11:34.074Z,17.07
2019-04-27T09:12:34.044Z,16.97
2019-04-27T09:13:34.035Z,17.04
2019-04-27T09:14:34.034Z,17.03
2019-04-27T09:15:34.030Z,16.98
2019-04-27T09:16:34.024Z,17.00
2019-04-27T09:17:33.990Z,17.00
2019-04-27T09:18:33.982Z,16.78
2019-04-27T09:19:33.989Z,16.71
2019-04-27T09:20:33.959Z,16.52
2019-04-27T09:21:33.962Z,16.46
2019-04-27T09:22:33.931Z,16.45
2019-04-27T09:23:33.926Z,16.42
2019-04-27T09:24:33.915Z,16.53
2019-04-27T09:25:33.911Z,16.49
2019-04-27T09:26:33.917Z,16.49
2019-04-27T09:27:33.876Z,16.63
2019-04-27T09:28:33.883Z,16.63
2019-04-27T09:29:33.855Z,16.73
2019-04-27T09:30:33.854Z,16.70
2019-04-27T09:31:33.854Z,16.64
2019-04-27T09:32:33.823Z,16.57
2019-04-27T09:33:33.806Z,16.41
2019-04-27T09:34:33.806Z,16.31
2019-04-27T09:35:35.569Z,16.33
2019-04-27T09:36:33.803Z,16.35
2019-04-27T09:37:33.796Z,16.42
2019-04-27T09:38:35.656Z,16.56
2019-04-27T09:39:35.757Z,16.61
2019-04-27T09:40:33.743Z,16.71
2019-04-27T09:41:33.733Z,16.81
2019-04-27T09:42:33.705Z,16.58
2019-04-27T09:43:33.689Z,16.64
2019-04-27T09:44:33.683Z,16.60
2019-04-27T09:45:33.701Z,16.66
2019-04-27T09:46:33.709Z,16.79
2019-04-27T09:47:33.714Z,16.83
2019-04-27T09:48:33.640Z,16.91
2019-04-27T09:49:33.631Z,16.83
2019-04-27T09:50:35.932Z,16.88
2019-04-27T09:51:33.632Z,16.73
2019-04-27T09:52:33.610Z,16.89
2019-04-27T09:53:33.599Z,16.93
2019-04-27T09:54:33.598Z,17.01
2019-04-27T09:55:33.563Z,17.01
2019-04-27T09:56:33.556Z,17.03
2019-04-27T09:57:33.553Z,17.18
2019-04-27T09:58:33.526Z,17.28
2019-04-27T09:59:33.510Z,17.25
2019-04-27T10:00:33.503Z,17.03
2019-04-27T10:01:33.516Z,17.18
2019-04-27T10:02:33.598Z,17.04
2019-04-27T10:03:33.469Z,17.08
2019-04-27T10:04:33.470Z,17.31
2019-04-27T10:05:33.446Z,17.51
2019-04-27T10:06:33.442Z,17.68
2019-04-27T10:07:33.457Z,17.77
2019-04-27T10:08:33.411Z,17.92
2019-04-27T10:09:33.403Z,17.95
2019-04-27T10:10:33.390Z,17.96
2019-04-27T10:11:33.378Z,17.97
2019-04-27T10:12:34.443Z,18.05
2019-04-27T10:13:33.354Z,18.10
2019-04-27T10:14:33.355Z,18.29
2019-04-27T10:15:33.353Z,18.23
2019-04-27T10:16:33.344Z,18.14
2019-04-27T10:17:33.333Z,18.20
2019-04-27T10:18:33.303Z,18.44
2019-04-27T10:19:33.300Z,18.58
2019-04-27T10:20:38.292Z,18.50
2019-04-27T10:21:34.264Z,18.63
2019-04-27T10:22:41.202Z,18.72
2019-04-27T10:23:34.240Z,18.58
2019-04-27T10:24:33.232Z,18.44
2019-04-27T10:25:33.227Z,18.50
2019-04-27T10:26:33.218Z,18.54
2019-04-27T10:27:33.218Z,18.65
2019-04-27T10:28:33.196Z,18.76
2019-04-27T10:29:33.178Z,18.78
2019-04-27T10:30:33.160Z,18.65
2019-04-27T10:31:33.187Z,18.76
2019-04-27T10:32:33.159Z,18.87
2019-04-27T10:33:33.164Z,18.76
2019-04-27T10:34:33.122Z,18.82
2019-04-27T10:35:33.107Z,18.72
2019-04-27T10:36:33.094Z,18.76
2019-04-27T10:37:33.105Z,18.78
2019-04-27T10:38:33.118Z,18.87
2019-04-27T10:39:33.071Z,18.87
2019-04-27T10:40:33.059Z,18.88
2019-04-27T10:41:33.042Z,18.91
2019-04-27T10:42:33.052Z,19.00
2019-04-27T10:43:33.023Z,19.10
2019-04-27T10:44:32.999Z,18.98
2019-04-27T10:45:32.994Z,18.94
2019-04-27T10:46:32.978Z,18.84
2019-04-27T10:47:32.998Z,18.75
2019-04-27T10:48:32.956Z,18.76
2019-04-27T10:49:32.945Z,18.90
2019-04-27T10:50:33.909Z,19.19
2019-04-27T10:51:32.927Z,19.76
2019-04-27T10:52:32.916Z,20.33
2019-04-27T10:53:32.929Z,20.38
2019-04-27T10:54:32.891Z,20.06
2019-04-27T10:55:32.934Z,19.96
2019-04-27T10:56:32.870Z,20.33
2019-04-27T10:57:32.888Z,20.39
2019-04-27T10:58:32.847Z,20.39
2019-04-27T10:59:32.841Z,20.42
2019-04-27T11:00:32.826Z,20.59
2019-04-27T11:01:32.811Z,20.80
2019-04-27T11:02:32.822Z,20.85
2019-04-27T11:03:32.808Z,20.70
2019-04-27T11:04:32.780Z,20.82
2019-04-27T11:05:32.774Z,20.85
2019-04-27T11:06:32.767Z,20.84
2019-04-27T11:07:32.764Z,20.74
2019-04-27T11:08:32.740Z,20.88
2019-04-27T11:09:32.725Z,20.89
2019-04-27T11:10:32.719Z,20.55
2019-04-27T11:11:32.701Z,20.39
2019-04-27T11:12:32.714Z,19.94
2019-04-27T11:13:32.686Z,19.40
2019-04-27T11:14:32.677Z,19.25
2019-04-27T11:15:32.655Z,18.95
2019-04-27T11:16:32.650Z,18.84
2019-04-27T11:17:32.654Z,18.81
2019-04-27T11:18:32.637Z,18.94
2019-04-27T11:19:32.615Z,19.07
2019-04-27T11:20:32.639Z,19.47
2019-04-27T11:21:32.590Z,20.20
2019-04-27T11:22:32.604Z,20.97
2019-04-27T11:23:32.579Z,20.91
2019-04-27T11:24:32.563Z,21.24
2019-04-27T11:25:32.553Z,21.44
2019-04-27T11:26:32.536Z,21.75
2019-04-27T11:27:32.564Z,21.94
2019-04-27T11:28:32.511Z,21.74
2019-04-27T11:29:32.523Z,21.54
2019-04-27T11:30:32.490Z,21.29
2019-04-27T11:31:32.481Z,21.06
2019-04-27T11:32:32.546Z,20.70
2019-04-27T11:33:32.457Z,20.59
2019-04-27T11:34:32.447Z,20.55
2019-04-27T11:35:32.447Z,20.52
2019-04-27T11:36:32.512Z,20.36
2019-04-27T11:37:32.436Z,20.35
2019-04-27T11:38:32.473Z,20.14
2019-04-27T11:39:32.411Z,20.28
2019-04-27T11:40:32.384Z,20.72
2019-04-27T11:41:32.370Z,21.27
2019-04-27T11:42:32.389Z,21.47
2019-04-27T11:43:32.508Z,21.90
2019-04-27T11:44:32.515Z,21.99
2019-04-27T11:45:32.325Z,22.72
2019-04-27T11:46:32.330Z,23.79
2019-04-27T11:47:32.330Z,24.00
2019-04-27T11:48:32.291Z,24.43
2019-04-27T11:49:32.335Z,25.38
2019-04-27T11:50:35.649Z,25.23
2019-04-27T11:51:32.292Z,24.76
2019-04-27T11:52:32.271Z,24.22
2019-04-27T11:53:32.260Z,23.75
2019-04-27T11:54:32.992Z,24.49
2019-04-27T11:55:32.220Z,24.83
2019-04-27T11:56:32.235Z,25.00
2019-04-27T11:57:32.208Z,25.14
2019-04-27T11:58:34.888Z,25.06
2019-04-27T11:59:32.167Z,25.17
2019-04-27T12:00:32.164Z,25.47
2019-04-27T12:01:32.152Z,25.60
2019-04-27T12:02:32.181Z,25.21
2019-04-27T12:03:32.157Z,25.60
2019-04-27T12:04:32.136Z,24.65
2019-04-27T12:05:32.153Z,23.79
2019-04-27T12:06:32.102Z,23.42
2019-04-27T12:07:32.105Z,22.73
2019-04-27T12:08:32.091Z,22.45
2019-04-27T12:09:32.075Z,21.94
2019-04-27T12:10:32.075Z,21.49
2019-04-27T12:11:32.080Z,20.97
2019-04-27T12:12:32.029Z,20.99
2019-04-27T12:13:32.040Z,20.99
2019-04-27T12:14:32.009Z,21.44
2019-04-27T12:15:32.015Z,21.74
2019-04-27T12:16:31.990Z,22.09
2019-04-27T12:17:31.973Z,22.35
2019-04-27T12:18:32.010Z,22.46
2019-04-27T12:19:31.948Z,22.55
2019-04-27T12:20:31.940Z,22.70
2019-04-27T12:21:31.974Z,22.62
2019-04-27T12:22:31.952Z,22.40
2019-04-27T12:23:35.553Z,22.42
2019-04-27T12:24:32.892Z,22.40
2019-04-27T12:25:31.890Z,22.55
2019-04-27T12:26:31.882Z,22.64
2019-04-27T12:27:31.910Z,22.65
2019-04-27T12:28:31.898Z,22.60
2019-04-27T12:29:31.839Z,22.57
2019-04-27T12:30:31.854Z,22.55
2019-04-27T12:31:31.822Z,22.77
2019-04-27T12:32:31.820Z,22.80
2019-04-27T12:33:31.845Z,22.80
2019-04-27T12:34:31.785Z,22.52
2019-04-27T12:35:31.777Z,22.54
2019-04-27T12:36:31.773Z,22.51
2019-04-27T12:37:31.756Z,22.25
2019-04-27T12:38:31.762Z,21.92
2019-04-27T12:39:31.727Z,21.69
2019-04-27T12:40:31.726Z,21.62
2019-04-27T12:41:31.715Z,21.59
2019-04-27T12:42:31.701Z,21.31
2019-04-27T12:43:31.721Z,21.21
2019-04-27T12:44:31.684Z,20.99
2019-04-27T12:45:31.671Z,20.85
2019-04-27T12:46:31.654Z,20.72
2019-04-27T12:47:31.648Z,20.61
2019-04-27T12:48:31.657Z,20.36
2019-04-27T12:49:31.667Z,20.11
2019-04-27T12:50:31.632Z,19.87
2019-04-27T12:51:31.606Z,19.71
2019-04-27T12:52:31.589Z,19.51
2019-04-27T12:53:31.608Z,19.47
2019-04-27T12:54:31.748Z,19.31
2019-04-27T12:55:31.562Z,19.28
2019-04-27T12:56:31.541Z,19.19
2019-04-27T12:57:31.573Z,19.19
2019-04-27T12:58:31.522Z,19.16
2019-04-27T12:59:31.543Z,18.91
2019-04-27T13:00:31.521Z,18.67
2019-04-27T13:01:31.499Z,18.50
2019-04-27T13:02:31.470Z,18.44
2019-04-27T13:03:31.466Z,18.37
2019-04-27T13:04:31.471Z,18.41
2019-04-27T13:05:31.436Z,18.45
2019-04-27T13:06:31.503Z,18.54
2019-04-27T13:07:31.423Z,18.44
2019-04-27T13:08:31.439Z,18.48
2019-04-27T13:09:31.416Z,18.58
2019-04-27T13:10:31.402Z,18.54
2019-04-27T13:11:31.389Z,18.55
2019-04-27T13:12:31.367Z,18.65
2019-04-27T13:13:31.347Z,18.69
2019-04-27T13:14:31.357Z,18.67
2019-04-27T13:15:31.351Z,18.67
2019-04-27T13:16:31.325Z,18.76
2019-04-27T13:17:31.336Z,18.69
2019-04-27T13:18:31.309Z,18.69
2019-04-27T13:19:31.283Z,18.76
2019-04-27T13:20:31.372Z,18.52
2019-04-27T13:21:31.264Z,18.41
2019-04-27T13:22:31.334Z,18.37
2019-04-27T13:23:31.240Z,18.30
2019-04-27T13:24:31.240Z,18.20
2019-04-27T13:25:31.239Z,18.10
2019-04-27T13:26:31.199Z,17.99
2019-04-27T13:27:31.213Z,18.00
2019-04-27T13:28:31.186Z,18.03
2019-04-27T13:29:31.175Z,18.00
2019-04-27T13:30:31.187Z,17.92
2019-04-27T13:31:31.145Z,17.86
2019-04-27T13:32:31.134Z,17.77
2019-04-27T13:33:31.138Z,17.64
2019-04-27T13:34:31.115Z,17.63
2019-04-27T13:35:39.456Z,17.62
2019-04-27T13:36:33.090Z,17.44
2019-04-27T13:37:31.078Z,17.36
2019-04-27T13:38:31.067Z,17.33
2019-04-27T13:39:31.056Z,17.19
2019-04-27T13:40:31.063Z,17.04
2019-04-27T13:41:32.942Z,17.04
2019-04-27T13:42:31.063Z,17.07
2019-04-27T13:43:31.009Z,17.00
2019-04-27T13:44:31.003Z,17.07
2019-04-27T13:45:30.990Z,17.11
2019-04-27T13:46:30.992Z,17.07
2019-04-27T13:47:30.971Z,17.06
2019-04-27T13:48:30.950Z,17.18
2019-04-27T13:49:30.938Z,17.19
2019-04-27T13:50:31.015Z,17.08
2019-04-27T13:51:30.937Z,17.08
2019-04-27T13:52:30.935Z,17.08
2019-04-27T13:53:32.494Z,17.01
2019-04-27T13:54:30.887Z,17.03
2019-04-27T13:55:30.886Z,17.07
2019-04-27T13:56:30.855Z,17.11
2019-04-27T13:57:30.871Z,17.04
2019-04-27T13:58:31.065Z,17.16
2019-04-27T13:59:31.840Z,17.19
2019-04-27T14:00:30.814Z,17.34
2019-04-27T14:01:30.813Z,17.41
2019-04-27T14:02:32.600Z,17.49
2019-04-27T14:03:30.797Z,17.54
2019-04-27T14:04:30.772Z,17.59
2019-04-27T14:05:30.766Z,17.54
2019-04-27T14:06:30.792Z,17.49
2019-04-27T14:07:30.771Z,17.52
2019-04-27T14:08:30.736Z,17.44
2019-04-27T14:09:30.802Z,17.33
2019-04-27T14:10:30.702Z,17.36
2019-04-27T14:11:30.709Z,17.46
2019-04-27T14:12:31.074Z,17.41
2019-04-27T14:13:30.681Z,17.58
2019-04-27T14:14:30.674Z,17.63
2019-04-27T14:15:30.646Z,17.64
2019-04-27T14:16:30.645Z,17.78
2019-04-27T14:17:30.647Z,17.82
2019-04-27T14:18:30.616Z,17.68
2019-04-27T14:19:30.630Z,17.64
2019-04-27T14:20:30.605Z,17.71
2019-04-27T14:21:32.883Z,17.58
2019-04-27T14:22:31.600Z,17.64
2019-04-27T14:23:30.577Z,17.66
2019-04-27T14:24:32.009Z,17.77
2019-04-27T14:25:30.564Z,17.70
2019-04-27T14:26:31.052Z,17.70
2019-04-27T14:27:30.514Z,17.70
2019-04-27T14:28:30.518Z,17.74
2019-04-27T14:29:30.483Z,17.70
2019-04-27T14:30:30.477Z,17.68
2019-04-27T14:31:30.495Z,17.66
2019-04-27T14:32:30.454Z,17.70
2019-04-27T14:33:30.491Z,17.74
2019-04-27T14:34:30.432Z,17.75
2019-04-27T14:35:31.264Z,17.82
2019-04-27T14:36:30.418Z,17.72
2019-04-27T14:37:30.427Z,17.79
2019-04-27T14:38:30.408Z,17.78
2019-04-27T14:39:30.371Z,17.87
2019-04-27T14:40:30.376Z,17.82
2019-04-27T14:41:30.353Z,17.96
2019-04-27T14:42:30.356Z,18.05
2019-04-27T14:43:30.359Z,18.11
2019-04-27T14:44:30.316Z,18.18
2019-04-27T14:45:30.308Z,18.33
2019-04-27T14:46:30.576Z,18.30
2019-04-27T14:47:30.328Z,18.29
2019-04-27T14:48:30.701Z,18.37
2019-04-27T14:49:30.263Z,18.39
2019-04-27T14:50:30.256Z,18.50
2019-04-27T14:51:30.239Z,18.50
2019-04-27T14:52:30.237Z,18.51
2019-04-27T14:53:30.266Z,18.52
2019-04-27T14:54:44.994Z,18.70
2019-04-27T14:55:32.011Z,18.67
2019-04-27T14:56:30.185Z,18.67
2019-04-27T14:57:30.199Z,18.67
2019-04-27T14:58:30.208Z,18.67
2019-04-27T14:59:30.248Z,18.75
2019-04-27T15:00:30.658Z,18.78
2019-04-27T15:01:30.127Z,18.80
2019-04-27T15:02:30.123Z,18.87
2019-04-27T15:03:30.272Z,19.14
2019-04-27T15:04:31.318Z,19.43
2019-04-27T15:05:30.163Z,19.59
2019-04-27T15:06:30.278Z,19.84
2019-04-27T15:07:30.093Z,19.86
2019-04-27T15:08:30.080Z,19.87
2019-04-27T15:09:30.122Z,19.87
2019-04-27T15:10:33.009Z,19.92
2019-04-27T15:11:31.563Z,19.91
2019-04-27T15:12:32.130Z,19.87
2019-04-27T15:13:30.053Z,19.88
2019-04-27T15:14:31.072Z,19.99
2019-04-27T15:15:32.569Z,20.03
2019-04-27T15:16:29.968Z,20.13
2019-04-27T15:17:29.957Z,20.20
2019-04-27T15:18:29.954Z,20.39
2019-04-27T15:19:29.953Z,20.55
2019-04-27T15:20:31.078Z,20.64
2019-04-27T15:21:32.678Z,20.84
2019-04-27T15:22:30.887Z,21.10
2019-04-27T15:23:30.837Z,21.29
2019-04-27T15:24:31.195Z,21.43
2019-04-27T15:25:35.033Z,21.46
2019-04-27T15:26:30.891Z,21.44
2019-04-27T15:27:30.856Z,21.14
2019-04-27T15:28:32.063Z,20.88
2019-04-27T15:29:30.195Z,20.79
2019-04-27T15:30:29.800Z,20.51
2019-04-27T15:31:29.828Z,20.54
2019-04-27T15:32:33.590Z,20.33
2019-04-27T15:33:29.772Z,20.38
2019-04-27T15:34:29.821Z,20.26
2019-04-27T15:35:29.743Z,20.31
2019-04-27T15:36:29.729Z,20.31
2019-04-27T15:37:33.938Z,20.08
2019-04-27T15:38:30.734Z,19.99
2019-04-27T15:39:30.619Z,19.83
2019-04-27T15:40:29.685Z,19.77
2019-04-27T15:41:31.558Z,19.56
2019-04-27T15:42:29.695Z,19.50
2019-04-27T15:43:30.916Z,19.51
2019-04-27T15:44:29.665Z,19.86
2019-04-27T15:45:29.621Z,20.20
2019-04-27T15:46:33.728Z,20.05
2019-04-27T15:47:33.479Z,20.03
2019-04-27T15:48:30.717Z,20.11
2019-04-27T15:49:29.591Z,19.95
2019-04-27T15:50:32.247Z,19.99
2019-04-27T15:51:29.563Z,20.17
2019-04-27T15:52:33.057Z,20.97
2019-04-27T15:53:29.545Z,21.71
2019-04-27T15:54:32.291Z,22.09
2019-04-27T15:55:34.570Z,21.96
2019-04-27T15:56:34.707Z,21.69
2019-04-27T15:57:29.495Z,21.52
2019-04-27T15:58:29.489Z,21.28
2019-04-27T15:59:30.919Z,21.01
2019-04-27T16:00:30.492Z,21.09
2019-04-27T16:01:35.629Z,21.22
2019-04-27T16:02:30.429Z,21.40
2019-04-27T16:03:31.430Z,21.42
2019-04-27T16:04:29.406Z,21.28
2019-04-27T16:05:32.641Z,21.01
2019-04-27T16:06:30.408Z,20.62
2019-04-27T16:07:31.719Z,20.42
2019-04-27T16:08:29.364Z,20.21
2019-04-27T16:09:29.361Z,19.99
2019-04-27T16:10:32.863Z,19.99
2019-04-27T16:11:30.352Z,19.88
2019-04-27T16:12:29.338Z,19.81
2019-04-27T16:13:32.915Z,19.80
2019-04-27T16:14:29.295Z,19.69
2019-04-27T16:15:29.971Z,19.71
2019-04-27T16:16:33.351Z,19.78
2019-04-27T16:17:31.904Z,19.74
2019-04-27T16:18:32.621Z,19.77
2019-04-27T16:19:29.246Z,19.62
2019-04-27T16:20:33.637Z,19.63
2019-04-27T16:21:31.520Z,19.56
2019-04-27T16:22:29.219Z,19.55
2019-04-27T16:23:33.565Z,19.50
2019-04-27T16:24:32.217Z,19.46
2019-04-27T16:25:31.580Z,19.32
2019-04-27T16:26:30.183Z,19.19
2019-04-27T16:27:31.439Z,19.13
2019-04-27T16:28:30.162Z,19.07
2019-04-27T16:29:31.570Z,18.90
2019-04-27T16:30:29.113Z,18.81
2019-04-27T16:31:32.054Z,18.84
2019-04-27T16:32:29.102Z,18.76
2019-04-27T16:33:29.100Z,18.81
2019-04-27T16:34:32.978Z,18.80
2019-04-27T16:35:30.076Z,18.67
2019-04-27T16:36:29.119Z,18.70
2019-04-27T16:37:29.039Z,18.66
2019-04-27T16:38:33.570Z,18.58
2019-04-27T16:39:30.023Z,18.54
2019-04-27T16:40:30.148Z,18.60
2019-04-27T16:41:29.025Z,18.51
2019-04-27T16:42:28.977Z,18.42
2019-04-27T16:43:32.620Z,18.42
2019-04-27T16:44:28.967Z,18.47
2019-04-27T16:45:28.963Z,18.32
2019-04-27T16:46:28.946Z,18.32
2019-04-27T16:47:28.966Z,18.29
2019-04-27T16:48:34.331Z,18.29
2019-04-27T16:49:29.919Z,18.23
2019-04-27T16:50:28.971Z,18.12
2019-04-27T16:51:29.789Z,18.15
2019-04-27T16:52:30.144Z,18.18
2019-04-27T16:53:30.073Z,18.15
2019-04-27T16:54:29.852Z,18.10
2019-04-27T16:55:34.075Z,18.05
2019-04-27T16:56:29.917Z,18.12
2019-04-27T16:57:32.423Z,18.03
2019-04-27T16:58:31.869Z,18.08
2019-04-27T16:59:43.590Z,18.07
2019-04-27T17:00:30.511Z,17.97
2019-04-27T17:01:30.470Z,17.96
2019-04-27T17:02:28.797Z,17.96
2019-04-27T17:03:31.628Z,17.87
2019-04-27T17:04:29.394Z,17.92
2019-04-27T17:05:34.276Z,17.89
2019-04-27T17:06:29.862Z,17.86
2019-04-27T17:07:30.258Z,17.86
2019-04-27T17:08:29.681Z,17.82
2019-04-27T17:09:29.216Z,17.78
2019-04-27T17:10:29.152Z,17.70
2019-04-27T17:11:29.787Z,17.63
2019-04-27T17:12:32.475Z,17.56
2019-04-27T17:13:30.591Z,17.55
2019-04-27T17:14:34.816Z,17.55
2019-04-27T17:15:30.038Z,17.55
2019-04-27T17:16:32.222Z,17.52
2019-04-27T17:17:29.613Z,17.41
2019-04-27T17:18:30.930Z,17.36
2019-04-27T17:19:30.583Z,17.41
2019-04-27T17:20:29.909Z,17.38
2019-04-27T17:21:28.889Z,17.41
2019-04-27T17:22:28.699Z,17.54
2019-04-27T17:23:31.241Z,17.41
2019-04-27T17:24:31.901Z,17.49
2019-04-27T17:25:33.069Z,17.46
2019-04-27T17:26:29.476Z,17.43
2019-04-27T17:27:31.214Z,17.43
2019-04-27T17:28:28.494Z,17.46
2019-04-27T17:29:28.473Z,17.46
2019-04-27T17:30:31.004Z,17.36
2019-04-27T17:31:29.420Z,17.30
2019-04-27T17:32:30.390Z,17.37
2019-04-27T17:33:29.429Z,17.33
2019-04-27T17:34:28.640Z,17.34
2019-04-27T17:35:28.573Z,17.28
2019-04-27T17:36:29.259Z,17.37
2019-04-27T17:37:32.228Z,17.21
2019-04-27T17:38:30.493Z,17.16
2019-04-27T17:39:29.813Z,17.22
2019-04-27T17:40:29.929Z,17.21
2019-04-27T17:41:29.318Z,17.16
2019-04-27T17:42:30.621Z,17.16
2019-04-27T17:43:28.880Z,17.18
2019-04-27T17:44:28.815Z,17.14
2019-04-27T17:45:30.464Z,17.03
2019-04-27T17:46:29.268Z,17.01
2019-04-27T17:47:29.917Z,17.04
2019-04-27T17:48:28.868Z,17.04
2019-04-27T17:49:28.222Z,17.08
2019-04-27T17:50:29.864Z,17.11
2019-04-27T17:51:30.685Z,17.07
2019-04-27T17:52:29.104Z,17.03
2019-04-27T17:53:29.881Z,17.11
2019-04-27T17:54:28.987Z,17.07
2019-04-27T17:55:28.188Z,17.04
2019-04-27T17:56:35.953Z,17.01
2019-04-27T17:57:30.163Z,16.94
2019-04-27T17:58:28.656Z,16.98
2019-04-27T17:59:28.118Z,16.93
2019-04-27T18:00:28.226Z,16.94
2019-04-27T18:01:30.100Z,16.94
2019-04-27T18:02:29.313Z,16.94
2019-04-27T18:03:28.494Z,16.98
2019-04-27T18:04:28.748Z,17.00
2019-04-27T18:05:28.559Z,16.91
2019-04-27T18:06:29.713Z,16.93
2019-04-27T18:07:30.119Z,16.94
2019-04-27T18:08:29.129Z,16.86
2019-04-27T18:09:29.050Z,16.86
2019-04-27T18:10:28.280Z,16.82
2019-04-27T18:11:28.739Z,16.86
2019-04-27T18:12:28.497Z,16.86
2019-04-27T18:13:28.854Z,16.82
2019-04-27T18:14:32.542Z,16.79
2019-04-27T18:15:28.756Z,16.71
2019-04-27T18:16:31.103Z,16.71
2019-04-27T18:17:28.901Z,16.75
2019-04-27T18:18:28.107Z,16.71
2019-04-27T18:19:28.307Z,16.70
2019-04-27T18:20:28.944Z,16.71
2019-04-27T18:21:28.344Z,16.71
2019-04-27T18:22:28.200Z,16.66
2019-04-27T18:23:27.831Z,16.60
2019-04-27T18:24:29.121Z,16.68
2019-04-27T18:25:28.607Z,16.70
2019-04-27T18:26:29.516Z,16.68
2019-04-27T18:27:27.802Z,16.58
2019-04-27T18:28:28.368Z,16.60
2019-04-27T18:29:30.879Z,16.56
2019-04-27T18:30:28.237Z,16.58
2019-04-27T18:31:28.912Z,16.58
2019-04-27T18:32:28.739Z,16.48
2019-04-27T18:33:28.406Z,16.46
2019-04-27T18:34:28.623Z,16.45
2019-04-27T18:35:29.490Z,16.43
2019-04-27T18:36:29.438Z,16.35
2019-04-27T18:37:28.290Z,16.48
2019-04-27T18:38:30.899Z,16.41
2019-04-27T18:39:28.650Z,16.48
2019-04-27T18:40:32.068Z,16.34
2019-04-27T18:41:28.824Z,16.43
2019-04-27T18:42:31.145Z,16.35
2019-04-27T18:43:28.595Z,16.34
2019-04-27T18:44:30.510Z,16.31
2019-04-27T18:45:28.413Z,16.23
2019-04-27T18:46:28.284Z,16.17
2019-04-27T18:47:31.055Z,16.24
2019-04-27T18:48:27.571Z,16.25
2019-04-27T18:49:30.253Z,16.17
2019-04-27T18:50:28.195Z,16.12
2019-04-27T18:51:28.801Z,16.07
2019-04-27T18:52:27.528Z,16.08
2019-04-27T18:53:28.852Z,16.08
2019-04-27T18:54:28.786Z,16.05
2019-04-27T18:55:29.357Z,16.04
2019-04-27T18:56:29.069Z,16.04
2019-04-27T18:57:29.999Z,16.04
2019-04-27T18:58:27.435Z,16.04
2019-04-27T18:59:28.853Z,15.96
2019-04-27T19:00:27.982Z,15.94
2019-04-27T19:01:28.928Z,15.90
2019-04-27T19:02:28.815Z,15.83
2019-04-27T19:03:31.044Z,15.84
2019-04-27T19:04:28.151Z,15.92
2019-04-27T19:05:39.279Z,15.78
2019-04-27T19:06:29.014Z,15.82
2019-04-27T19:07:28.989Z,15.93
2019-04-27T19:08:28.154Z,15.86
2019-04-27T19:09:27.354Z,15.78
2019-04-27T19:10:28.168Z,15.68
2019-04-27T19:11:29.082Z,15.67
2019-04-27T19:12:28.714Z,15.74
2019-04-27T19:13:27.292Z,15.65
2019-04-27T19:14:28.256Z,15.65
2019-04-27T19:15:28.576Z,15.60
2019-04-27T19:16:29.038Z,15.51
2019-04-27T19:17:28.221Z,15.51
2019-04-27T19:18:27.240Z,15.47
2019-04-27T19:19:28.074Z,15.49
2019-04-27T19:20:28.808Z,15.54
2019-04-27T19:21:28.838Z,15.47
2019-04-27T19:22:27.993Z,15.49
2019-04-27T19:23:27.159Z,15.50
2019-04-27T19:24:28.168Z,15.49
2019-04-27T19:25:28.794Z,15.50
2019-04-27T19:26:28.894Z,15.47
2019-04-27T19:27:27.927Z,15.54
2019-04-27T19:28:28.318Z,15.53
2019-04-27T19:29:29.120Z,15.50
2019-04-27T19:30:28.048Z,15.49
2019-04-27T19:31:29.014Z,15.47
2019-04-27T19:32:28.126Z,15.44
2019-04-27T19:33:29.135Z,15.47
2019-04-27T19:34:28.674Z,15.49
2019-04-27T19:35:28.671Z,15.44
2019-04-27T19:36:27.972Z,15.51
2019-04-27T19:37:28.652Z,15.47
2019-04-27T19:38:28.857Z,15.44
2019-04-27T19:39:28.548Z,15.41
2019-04-27T19:40:28.940Z,15.49
2019-04-27T19:41:28.714Z,15.46
2019-04-27T19:42:28.558Z,15.38
2019-04-27T19:43:28.446Z,15.28
2019-04-27T19:44:28.982Z,15.25
2019-04-27T19:45:26.914Z,15.19
2019-04-27T19:46:28.802Z,15.20
2019-04-27T19:47:26.908Z,15.17
2019-04-27T19:48:28.534Z,15.21
2019-04-27T19:49:26.863Z,15.16
2019-04-27T19:50:28.575Z,15.10
2019-04-27T19:51:28.243Z,15.09
2019-04-27T19:52:28.142Z,15.19